createdAt,value
2022-09-21T00:00:14.143Z,39.30
2022-09-21T00:01:16.840Z,39.30
2022-09-21T00:02:19.313Z,39.30
2022-09-21T00:03:21.800Z,39.30
2022-09-21T00:04:24.283Z,39.20
2022-09-21T00:05:26.774Z,39.30
2022-09-21T00:06:32.206Z,39.30
2022-09-21T00:07:34.591Z,39.20
2022-09-21T00:08:37.295Z,39.30
2022-09-21T00:09:39.851Z,39.30
2022-09-21T00:10:42.283Z,39.40
2022-09-21T00:11:44.772Z,39.30
2022-09-21T00:12:48.603Z,39.40
2022-09-21T00:13:56.518Z,39.40
2022-09-21T00:14:59.118Z,39.30
2022-09-21T00:16:04.546Z,39.30
2022-09-21T00:17:07.778Z,39.20
2022-09-21T00:18:10.734Z,39.30
2022-09-21T00:19:15.519Z,39.30
2022-09-21T00:20:20.084Z,39.30
2022-09-21T00:21:23.149Z,39.30
2022-09-21T00:22:25.933Z,39.30
2022-09-21T00:23:28.819Z,39.30
2022-09-21T00:24:31.507Z,39.30
2022-09-21T00:25:34.018Z,39.30
2022-09-21T00:26:36.498Z,39.30
2022-09-21T00:27:38.969Z,39.30
2022-09-21T00:28:41.711Z,39.30
2022-09-21T00:29:44.470Z,39.30
2022-09-21T00:30:51.607Z,39.30
2022-09-21T00:31:54.127Z,39.30
2022-09-21T00:32:56.647Z,39.30
2022-09-21T00:34:00.259Z,39.30
2022-09-21T00:35:04.227Z,39.30
2022-09-21T00:36:09.243Z,39.30
2022-09-21T00:37:12.468Z,39.30
2022-09-21T00:38:15.019Z,39.30
2022-09-21T00:39:17.474Z,39.30
2022-09-21T00:40:19.980Z,39.30
2022-09-21T00:41:23.474Z,39.20
2022-09-21T00:42:32.793Z,39.30
2022-09-21T00:43:37.292Z,39.30
2022-09-21T00:44:39.803Z,39.30
2022-09-21T00:45:44.473Z,39.30
2022-09-21T00:46:49.318Z,39.30
2022-09-21T00:47:52.919Z,39.30
2022-09-21T00:48:58.419Z,39.30
2022-09-21T00:50:05.885Z,39.30
2022-09-21T00:51:09.315Z,39.30
2022-09-21T00:52:14.872Z,39.30
2022-09-21T00:53:17.460Z,39.30
2022-09-21T00:54:29.724Z,39.30
2022-09-21T00:55:37.787Z,39.30
2022-09-21T00:56:41.278Z,39.30
2022-09-21T00:57:46.049Z,39.30
2022-09-21T00:58:51.793Z,39.30
2022-09-21T00:59:57.408Z,39.30
2022-09-21T01:01:01.062Z,39.30
2022-09-21T01:02:04.327Z,39.30
2022-09-21T01:03:08.551Z,39.30
2022-09-21T01:04:13.758Z,39.30
2022-09-21T01:05:16.345Z,39.30
2022-09-21T01:06:20.882Z,39.30
2022-09-21T01:07:28.326Z,39.30
2022-09-21T01:08:31.510Z,39.30
2022-09-21T01:09:34.899Z,39.30
2022-09-21T01:10:54.747Z,39.30
2022-09-21T01:12:15.682Z,39.30
2022-09-21T01:13:36.911Z,39.30
2022-09-21T01:15:16.877Z,39.30
2022-09-21T01:16:32.232Z,39.30
2022-09-21T01:17:49.668Z,39.30
2022-09-21T01:19:02.942Z,39.30
2022-09-21T01:20:39.396Z,39.30
2022-09-21T01:22:05.772Z,39.30
2022-09-21T01:23:51.143Z,39.30
2022-09-21T01:25:07.051Z,39.30
2022-09-21T01:26:19.307Z,39.30
2022-09-21T01:27:41.443Z,39.30
2022-09-21T01:29:13.601Z,39.30
2022-09-21T01:30:19.132Z,39.30
2022-09-21T01:31:31.867Z,39.30
2022-09-21T01:32:52.323Z,39.20
2022-09-21T01:34:01.207Z,39.20
2022-09-21T01:35:08.149Z,39.30
2022-09-21T01:36:15.167Z,39.30
2022-09-21T01:37:23.156Z,39.20
2022-09-21T01:38:31.743Z,39.20
2022-09-21T01:39:36.009Z,39.80
2022-09-21T01:40:43.502Z,39.20
2022-09-21T01:41:48.660Z,39.20
2022-09-21T01:42:53.590Z,39.20
2022-09-21T01:44:08.273Z,39.20
2022-09-21T01:45:18.258Z,39.20
2022-09-21T01:46:22.502Z,39.30
2022-09-21T01:47:25.725Z,39.20
2022-09-21T01:48:35.175Z,39.20
2022-09-21T01:49:43.672Z,39.20
2022-09-21T01:50:57.061Z,39.20
2022-09-21T01:52:07.981Z,39.20
2022-09-21T01:53:21.868Z,39.20
2022-09-21T01:54:29.924Z,39.20
2022-09-21T01:55:41.293Z,39.20
2022-09-21T01:56:50.596Z,39.20
2022-09-21T01:58:10.646Z,39.20
2022-09-21T01:59:27.331Z,39.20
2022-09-21T02:00:34.409Z,39.20
2022-09-21T02:01:47.327Z,39.20
2022-09-21T02:03:08.724Z,39.20
2022-09-21T02:04:13.069Z,39.20
2022-09-21T02:05:17.481Z,39.20
2022-09-21T02:06:20.367Z,39.10
2022-09-21T02:07:22.880Z,39.20
2022-09-21T02:08:26.865Z,39.10
2022-09-21T02:09:29.745Z,39.20
2022-09-21T02:10:52.829Z,39.20
2022-09-21T02:11:55.967Z,39.10
2022-09-21T02:13:01.683Z,39.20
2022-09-21T02:14:05.790Z,39.20
2022-09-21T02:15:09.100Z,39.10
2022-09-21T02:16:28.443Z,39.20
2022-09-21T02:17:39.302Z,39.20
2022-09-21T02:19:22.269Z,39.10
2022-09-21T02:20:32.801Z,39.20
2022-09-21T02:21:49.081Z,39.10
2022-09-21T02:23:03.487Z,39.20
2022-09-21T02:24:23.514Z,39.10
2022-09-21T02:25:54.379Z,39.10
2022-09-21T02:27:22.898Z,39.10
2022-09-21T02:28:44.881Z,39.10
2022-09-21T02:30:05.918Z,39.20
2022-09-21T02:31:21.062Z,39.10
2022-09-21T02:32:38.839Z,39.10
2022-09-21T02:33:54.217Z,39.10
2022-09-21T02:35:08.483Z,39.10
2022-09-21T02:36:31.893Z,39.20
2022-09-21T02:38:06.704Z,39.10
2022-09-21T02:39:15.031Z,39.10
2022-09-21T02:40:31.455Z,39.10
2022-09-21T02:41:47.722Z,39.10
2022-09-21T02:42:56.934Z,39.10
2022-09-21T02:44:20.779Z,39.10
2022-09-21T02:45:27.750Z,39.10
2022-09-21T02:46:40.723Z,39.10
2022-09-21T02:48:07.307Z,39.10
2022-09-21T02:49:32.348Z,39.10
2022-09-21T02:50:51.908Z,39.10
2022-09-21T02:51:58.964Z,39.10
2022-09-21T02:53:04.550Z,39.10
2022-09-21T02:54:11.040Z,39.10
2022-09-21T02:55:17.104Z,39.10
2022-09-21T02:56:20.496Z,39.10
2022-09-21T02:57:24.086Z,39.10
2022-09-21T02:58:28.742Z,39.00
2022-09-21T02:59:31.647Z,39.10
2022-09-21T03:00:36.778Z,39.10
2022-09-21T03:01:40.620Z,39.10
2022-09-21T03:02:46.515Z,39.10
2022-09-21T03:03:49.154Z,39.00
2022-09-21T03:04:52.023Z,39.10
2022-09-21T03:05:55.733Z,39.10
2022-09-21T03:06:58.689Z,39.20
2022-09-21T03:08:01.292Z,39.10
2022-09-21T03:09:03.957Z,39.10
2022-09-21T03:10:08.257Z,39.10
2022-09-21T03:11:11.445Z,39.20
2022-09-21T03:12:14.089Z,39.10
2022-09-21T03:13:17.886Z,39.10
2022-09-21T03:14:20.746Z,39.20
2022-09-21T03:15:23.497Z,39.10
2022-09-21T03:16:26.094Z,39.20
2022-09-21T03:17:28.584Z,39.20
2022-09-21T03:18:31.935Z,39.20
2022-09-21T03:19:36.499Z,39.20
2022-09-21T03:20:41.037Z,39.20
2022-09-21T03:21:44.767Z,39.10
2022-09-21T03:22:48.315Z,39.20
2022-09-21T03:23:50.870Z,39.20
2022-09-21T03:24:57.412Z,39.20
2022-09-21T03:25:59.842Z,39.20
2022-09-21T03:27:02.534Z,39.20
2022-09-21T03:28:05.405Z,39.20
2022-09-21T03:29:08.501Z,39.20
2022-09-21T03:30:11.995Z,39.20
2022-09-21T03:31:14.568Z,39.20
2022-09-21T03:32:17.076Z,39.20
2022-09-21T03:33:20.736Z,39.20
2022-09-21T03:34:23.608Z,39.20
2022-09-21T03:35:26.707Z,39.20
2022-09-21T03:36:29.176Z,39.20
2022-09-21T03:37:32.034Z,39.20
2022-09-21T03:38:34.872Z,39.20
2022-09-21T03:39:38.440Z,39.30
2022-09-21T03:40:40.944Z,39.20
2022-09-21T03:41:44.667Z,39.30
2022-09-21T03:42:47.146Z,39.30
2022-09-21T03:43:49.624Z,39.20
2022-09-21T03:44:53.755Z,39.30
2022-09-21T03:45:56.926Z,39.30
2022-09-21T03:46:59.474Z,39.30
2022-09-21T03:48:02.194Z,39.30
2022-09-21T03:49:04.947Z,39.30
2022-09-21T03:50:10.148Z,39.30
2022-09-21T03:51:12.863Z,39.90
2022-09-21T03:52:15.333Z,39.30
2022-09-21T03:53:17.949Z,39.30
2022-09-21T03:54:21.068Z,39.40
2022-09-21T03:55:23.856Z,39.30
2022-09-21T03:56:26.296Z,39.30
2022-09-21T03:57:28.879Z,39.40
2022-09-21T03:58:31.330Z,39.40
2022-09-21T03:59:36.822Z,39.40
2022-09-21T04:00:39.563Z,39.40
2022-09-21T04:01:42.649Z,39.40
2022-09-21T04:02:46.051Z,39.40
2022-09-21T04:03:48.876Z,39.40
2022-09-21T04:04:51.331Z,39.40
2022-09-21T04:05:53.870Z,39.40
2022-09-21T04:06:56.888Z,39.40
2022-09-21T04:08:01.991Z,39.50
2022-09-21T04:09:04.761Z,39.50
2022-09-21T04:10:12.880Z,39.40
2022-09-21T04:11:20.168Z,39.50
2022-09-21T04:12:23.222Z,39.50
2022-09-21T04:13:25.739Z,39.50
2022-09-21T04:14:29.091Z,39.50
2022-09-21T04:15:32.006Z,39.50
2022-09-21T04:16:34.530Z,39.50
2022-09-21T04:17:41.013Z,39.50
2022-09-21T04:18:43.499Z,39.50
2022-09-21T04:19:46.067Z,39.50
2022-09-21T04:20:48.560Z,39.50
2022-09-21T04:21:55.034Z,39.60
2022-09-21T04:22:57.892Z,39.60
2022-09-21T04:24:01.911Z,39.60
2022-09-21T04:25:06.317Z,39.60
2022-09-21T04:26:26.487Z,39.60
2022-09-21T04:27:28.923Z,39.60
2022-09-21T04:28:32.612Z,39.60
2022-09-21T04:29:35.111Z,39.60
2022-09-21T04:30:38.179Z,39.60
2022-09-21T04:31:41.457Z,39.60
2022-09-21T04:32:44.872Z,39.70
2022-09-21T04:33:55.105Z,39.70
2022-09-21T04:34:58.053Z,39.70
2022-09-21T04:36:00.881Z,39.70
2022-09-21T04:37:03.460Z,39.70
2022-09-21T04:38:06.236Z,39.70
2022-09-21T04:39:15.787Z,39.70
2022-09-21T04:40:19.415Z,39.70
2022-09-21T04:41:22.099Z,39.70
2022-09-21T04:42:24.758Z,39.70
2022-09-21T04:43:27.236Z,39.80
2022-09-21T04:44:30.900Z,39.70
2022-09-21T04:45:34.498Z,39.70
2022-09-21T04:46:37.244Z,39.80
2022-09-21T04:47:39.709Z,39.80
2022-09-21T04:48:42.772Z,39.80
2022-09-21T04:49:45.252Z,39.80
2022-09-21T04:50:51.395Z,39.80
2022-09-21T04:51:54.170Z,39.80
2022-09-21T04:52:58.406Z,39.90
2022-09-21T04:54:01.198Z,39.90
2022-09-21T04:55:04.310Z,39.90
2022-09-21T04:56:08.881Z,39.90
2022-09-21T04:57:14.036Z,39.80
2022-09-21T04:58:17.320Z,39.90
2022-09-21T04:59:21.796Z,39.90
2022-09-21T05:00:26.718Z,40.00
2022-09-21T05:01:29.410Z,39.90
2022-09-21T05:02:32.001Z,40.00
2022-09-21T05:03:34.856Z,40.00
2022-09-21T05:04:37.321Z,40.00
2022-09-21T05:05:39.776Z,39.90
2022-09-21T05:06:42.409Z,40.00
2022-09-21T05:07:46.019Z,39.90
2022-09-21T05:09:07.203Z,40.00
2022-09-21T05:10:12.662Z,40.00
2022-09-21T05:11:18.985Z,40.00
2022-09-21T05:12:21.499Z,40.00
2022-09-21T05:13:24.163Z,40.00
2022-09-21T05:14:28.153Z,40.10
2022-09-21T05:15:30.735Z,40.10
2022-09-21T05:16:33.675Z,40.10
2022-09-21T05:17:36.205Z,40.10
2022-09-21T05:18:38.726Z,40.10
2022-09-21T05:19:41.335Z,40.10
2022-09-21T05:20:44.949Z,40.10
2022-09-21T05:21:47.776Z,40.10
2022-09-21T05:22:50.252Z,40.20
2022-09-21T05:23:52.806Z,40.70
2022-09-21T05:24:55.725Z,40.70
2022-09-21T05:25:59.503Z,40.20
2022-09-21T05:27:02.262Z,40.10
2022-09-21T05:28:05.859Z,40.20
2022-09-21T05:29:09.084Z,40.20
2022-09-21T05:30:26.508Z,40.30
2022-09-21T05:31:32.050Z,40.20
2022-09-21T05:32:59.511Z,40.20
2022-09-21T05:34:19.214Z,40.20
2022-09-21T05:35:47.010Z,40.20
2022-09-21T05:36:58.801Z,40.30
2022-09-21T05:38:19.282Z,40.20
2022-09-21T05:39:22.431Z,40.30
2022-09-21T05:40:27.498Z,40.30
2022-09-21T05:41:30.951Z,40.30
2022-09-21T05:42:33.884Z,40.30
2022-09-21T05:43:36.562Z,40.30
2022-09-21T05:44:39.341Z,40.40
2022-09-21T05:45:48.188Z,40.30
2022-09-21T05:46:58.905Z,40.90
2022-09-21T05:48:14.971Z,40.40
2022-09-21T05:49:19.347Z,40.40
2022-09-21T05:50:33.426Z,40.40
2022-09-21T05:51:52.898Z,40.50
2022-09-21T05:53:22.107Z,40.40
2022-09-21T05:54:44.673Z,40.40
2022-09-21T05:55:57.439Z,40.40
2022-09-21T05:57:35.887Z,40.50
2022-09-21T05:59:03.511Z,40.50
2022-09-21T06:00:19.193Z,40.50
2022-09-21T06:01:36.279Z,40.50
2022-09-21T06:02:50.835Z,40.50
2022-09-21T06:03:55.676Z,40.50
2022-09-21T06:05:00.565Z,40.50
2022-09-21T06:06:03.169Z,40.60
2022-09-21T06:07:05.686Z,40.50
2022-09-21T06:08:08.160Z,40.50
2022-09-21T06:09:10.671Z,40.60
2022-09-21T06:10:14.386Z,40.60
2022-09-21T06:11:17.174Z,40.60
2022-09-21T06:12:21.137Z,40.60
2022-09-21T06:13:23.583Z,40.50
2022-09-21T06:14:26.521Z,40.70
2022-09-21T06:15:28.907Z,40.60
2022-09-21T06:16:41.686Z,40.70
2022-09-21T06:17:44.055Z,40.70
2022-09-21T06:18:46.487Z,40.60
2022-09-21T06:19:48.961Z,40.60
2022-09-21T06:20:51.358Z,40.70
2022-09-21T06:21:53.823Z,40.70
2022-09-21T06:23:12.116Z,40.70
2022-09-21T06:24:14.496Z,40.60
2022-09-21T06:25:17.219Z,40.60
2022-09-21T06:26:19.835Z,40.70
2022-09-21T06:27:22.252Z,40.70
2022-09-21T06:28:24.770Z,40.70
2022-09-21T06:29:27.871Z,40.70
2022-09-21T06:30:34.581Z,40.70
2022-09-21T06:31:38.326Z,40.80
2022-09-21T06:32:41.885Z,40.80
2022-09-21T06:33:48.025Z,40.80
2022-09-21T06:34:50.741Z,40.80
2022-09-21T06:35:58.205Z,40.80
2022-09-21T06:37:00.622Z,40.80
2022-09-21T06:38:08.177Z,40.80
2022-09-21T06:39:23.198Z,40.80
2022-09-21T06:40:29.380Z,40.80
2022-09-21T06:41:31.820Z,40.90
2022-09-21T06:42:34.821Z,40.80
2022-09-21T06:43:37.581Z,40.90
2022-09-21T06:44:39.991Z,40.80
2022-09-21T06:45:42.655Z,40.80
2022-09-21T06:46:45.177Z,40.80
2022-09-21T06:47:48.210Z,40.90
2022-09-21T06:48:50.619Z,40.90
2022-09-21T06:49:54.171Z,40.90
2022-09-21T06:50:58.535Z,40.90
2022-09-21T06:52:01.540Z,40.90
2022-09-21T06:53:04.167Z,40.90
2022-09-21T06:54:06.666Z,41.00
2022-09-21T06:55:13.598Z,41.00
2022-09-21T06:56:16.339Z,41.00
2022-09-21T06:57:18.744Z,41.10
2022-09-21T06:58:21.207Z,41.10
2022-09-21T06:59:23.610Z,41.10
2022-09-21T07:00:26.092Z,41.20
2022-09-21T07:01:29.072Z,41.20
2022-09-21T07:02:31.678Z,41.20
2022-09-21T07:03:34.663Z,41.20
2022-09-21T07:04:37.206Z,41.10
2022-09-21T07:05:40.076Z,41.10
2022-09-21T07:06:42.639Z,41.10
2022-09-21T07:07:45.062Z,41.10
2022-09-21T07:10:15.898Z,41.10
2022-09-21T07:11:20.995Z,41.10
2022-09-21T07:12:23.505Z,41.10
2022-09-21T07:13:28.222Z,41.10
2022-09-21T07:14:30.700Z,41.10
2022-09-21T07:15:34.899Z,41.10
2022-09-21T07:16:37.470Z,41.10
2022-09-21T07:17:40.588Z,41.10
2022-09-21T07:18:44.250Z,41.70
2022-09-21T07:19:47.413Z,41.10
2022-09-21T07:20:50.292Z,41.10
2022-09-21T07:21:55.896Z,41.20
2022-09-21T07:22:58.356Z,41.10
2022-09-21T07:24:01.782Z,41.10
2022-09-21T07:25:06.970Z,41.10
2022-09-21T07:26:12.118Z,41.20
2022-09-21T07:27:14.948Z,41.10
2022-09-21T07:28:17.428Z,41.10
2022-09-21T07:29:19.936Z,41.10
2022-09-21T07:30:22.331Z,41.10
2022-09-21T07:31:24.814Z,41.20
2022-09-21T07:32:27.340Z,41.20
2022-09-21T07:33:33.878Z,41.20
2022-09-21T07:34:38.275Z,41.10
2022-09-21T07:35:40.679Z,41.10
2022-09-21T07:36:43.354Z,41.10
2022-09-21T07:37:45.802Z,41.10
2022-09-21T07:38:48.276Z,41.10
2022-09-21T07:39:52.098Z,41.10
2022-09-21T07:40:54.934Z,41.10
2022-09-21T07:41:58.558Z,41.10
2022-09-21T07:43:04.854Z,41.10
2022-09-21T07:44:07.445Z,41.10
2022-09-21T07:45:10.867Z,41.10
2022-09-21T07:46:14.938Z,41.10
2022-09-21T07:47:18.659Z,41.00
2022-09-21T07:48:22.478Z,41.00
2022-09-21T07:49:25.015Z,41.00
2022-09-21T07:50:27.699Z,41.00
2022-09-21T07:51:30.159Z,41.00
2022-09-21T07:52:32.633Z,41.00
2022-09-21T07:53:36.555Z,41.00
2022-09-21T07:54:39.072Z,41.00
2022-09-21T07:55:41.947Z,41.00
2022-09-21T07:57:04.282Z,40.90
2022-09-21T07:58:25.546Z,40.90
2022-09-21T07:59:28.006Z,41.00
2022-09-21T08:00:34.477Z,40.90
2022-09-21T08:01:39.071Z,40.90
2022-09-21T08:02:46.638Z,40.90
2022-09-21T08:03:51.148Z,40.80
2022-09-21T08:04:54.132Z,40.80
2022-09-21T08:06:00.811Z,40.80
2022-09-21T08:07:03.358Z,40.80
2022-09-21T08:08:05.783Z,40.90
2022-09-21T08:09:08.738Z,40.80
2022-09-21T08:10:11.312Z,40.80
2022-09-21T08:11:15.647Z,40.80
2022-09-21T08:12:20.495Z,40.80
2022-09-21T08:13:22.975Z,40.80
2022-09-21T08:14:26.669Z,40.70
2022-09-21T08:15:48.817Z,40.80
2022-09-21T08:16:51.698Z,40.80
2022-09-21T08:17:54.635Z,40.80
2022-09-21T08:18:58.733Z,40.70
2022-09-21T08:20:01.786Z,40.70
2022-09-21T08:21:04.258Z,40.70
2022-09-21T08:22:08.006Z,40.70
2022-09-21T08:23:12.375Z,40.70
2022-09-21T08:24:14.798Z,40.70
2022-09-21T08:25:17.327Z,40.70
2022-09-21T08:27:49.208Z,40.70
2022-09-21T08:28:53.341Z,40.60
2022-09-21T08:29:55.732Z,40.70
2022-09-21T08:31:02.891Z,40.60
2022-09-21T08:32:05.661Z,40.70
2022-09-21T08:33:09.013Z,40.60
2022-09-21T08:34:12.464Z,41.30
2022-09-21T08:35:14.998Z,40.60
2022-09-21T08:36:18.384Z,40.60
2022-09-21T08:37:21.904Z,40.60
2022-09-21T08:38:25.299Z,40.60
2022-09-21T08:39:27.782Z,40.60
2022-09-21T08:40:30.539Z,41.10
2022-09-21T08:42:00.739Z,40.60
2022-09-21T08:43:09.386Z,40.60
2022-09-21T08:44:19.448Z,40.50
2022-09-21T08:45:24.945Z,40.60
2022-09-21T08:46:31.506Z,40.50
2022-09-21T08:47:49.950Z,40.50
2022-09-21T08:49:09.288Z,40.60
2022-09-21T08:50:39.467Z,40.60
2022-09-21T08:51:56.463Z,40.50
2022-09-21T08:53:10.684Z,40.60
2022-09-21T08:54:20.856Z,40.50
2022-09-21T08:55:24.796Z,40.50
2022-09-21T08:56:41.894Z,40.50
2022-09-21T08:57:50.441Z,40.50
2022-09-21T08:58:52.991Z,40.50
2022-09-21T08:59:56.700Z,40.50
2022-09-21T09:01:24.710Z,40.40
2022-09-21T09:02:52.967Z,40.40
2022-09-21T09:04:06.348Z,40.40
2022-09-21T09:05:30.857Z,40.40
2022-09-21T09:07:07.058Z,40.30
2022-09-21T09:08:26.171Z,40.40
2022-09-21T09:09:37.451Z,40.30
2022-09-21T09:11:05.386Z,40.40
2022-09-21T09:12:30.368Z,40.30
2022-09-21T09:14:06.316Z,40.30
2022-09-21T09:15:29.819Z,40.40
2022-09-21T09:16:46.438Z,40.40
2022-09-21T09:18:13.496Z,40.50
2022-09-21T09:19:40.199Z,40.40
2022-09-21T09:20:48.003Z,40.50
2022-09-21T09:21:50.705Z,40.50
2022-09-21T09:23:17.356Z,40.50
2022-09-21T09:24:51.676Z,40.50
2022-09-21T09:26:02.109Z,40.40
2022-09-21T09:27:37.481Z,40.50
2022-09-21T09:28:55.413Z,40.50
2022-09-21T09:30:04.694Z,40.50
2022-09-21T09:31:18.729Z,40.50
2022-09-21T09:32:29.629Z,40.40
2022-09-21T09:34:03.308Z,40.50
2022-09-21T09:35:30.604Z,40.40
2022-09-21T09:36:57.177Z,40.40
2022-09-21T09:38:12.143Z,40.30
2022-09-21T09:39:16.576Z,40.30
2022-09-21T09:40:39.737Z,40.30
2022-09-21T09:42:03.591Z,40.20
2022-09-21T09:43:30.147Z,40.20
2022-09-21T09:44:58.021Z,40.20
2022-09-21T09:46:29.503Z,40.10
2022-09-21T09:48:17.576Z,40.10
2022-09-21T09:49:34.319Z,40.00
2022-09-21T09:50:40.141Z,40.20
2022-09-21T09:51:43.455Z,40.10
2022-09-21T09:52:47.423Z,40.00
2022-09-21T09:53:51.438Z,40.00
2022-09-21T09:54:54.739Z,40.00
2022-09-21T09:55:58.253Z,40.00
2022-09-21T09:57:05.990Z,39.90
2022-09-21T09:58:21.550Z,39.90
2022-09-21T09:59:54.202Z,40.00
2022-09-21T10:00:58.943Z,39.90
2022-09-21T10:02:26.419Z,40.00
2022-09-21T10:03:29.092Z,40.00
2022-09-21T10:04:32.438Z,40.00
2022-09-21T10:05:38.534Z,39.90
2022-09-21T10:06:46.111Z,40.00
2022-09-21T10:07:50.422Z,40.00
2022-09-21T10:08:53.348Z,40.00
2022-09-21T10:09:56.471Z,39.90
2022-09-21T10:10:59.058Z,39.90
2022-09-21T10:12:14.491Z,40.10
2022-09-21T10:13:45.239Z,40.00
2022-09-21T10:15:00.712Z,40.10
2022-09-21T10:16:34.285Z,40.10
2022-09-21T10:17:37.743Z,40.10
2022-09-21T10:18:48.050Z,40.10
2022-09-21T10:20:00.727Z,40.10
2022-09-21T10:21:21.676Z,40.10
2022-09-21T10:22:25.434Z,40.10
2022-09-21T10:23:30.219Z,40.10
2022-09-21T10:24:38.916Z,40.10
2022-09-21T10:25:42.387Z,40.10
2022-09-21T10:26:49.975Z,40.00
2022-09-21T10:27:53.407Z,40.10
2022-09-21T10:29:17.207Z,40.10
2022-09-21T10:30:41.311Z,40.00
2022-09-21T10:32:18.404Z,40.10
2022-09-21T10:33:22.662Z,40.10
2022-09-21T10:34:30.162Z,40.00
2022-09-21T10:35:48.706Z,40.00
2022-09-21T10:36:56.817Z,40.00
2022-09-21T10:38:22.455Z,40.00
2022-09-21T10:39:30.669Z,39.90
2022-09-21T10:40:37.124Z,40.00
2022-09-21T10:41:40.165Z,39.90
2022-09-21T10:42:43.618Z,39.90
2022-09-21T10:43:46.225Z,39.90
2022-09-21T10:45:10.720Z,39.90
2022-09-21T10:46:15.630Z,39.90
2022-09-21T10:47:40.629Z,39.90
2022-09-21T10:48:46.514Z,39.90
2022-09-21T10:49:54.848Z,40.00
2022-09-21T10:50:58.676Z,39.90
2022-09-21T10:52:02.455Z,39.90
2022-09-21T10:53:11.113Z,39.90
2022-09-21T10:54:21.391Z,39.90
2022-09-21T10:56:04.937Z,39.80
2022-09-21T10:57:17.339Z,39.80
2022-09-21T10:58:20.122Z,39.80
2022-09-21T10:59:25.532Z,39.80
2022-09-21T11:00:36.012Z,39.80
2022-09-21T11:01:45.681Z,39.70
2022-09-21T11:02:50.768Z,39.80
2022-09-21T11:04:20.318Z,39.80
2022-09-21T11:05:32.716Z,39.80
2022-09-21T11:06:41.549Z,39.80
2022-09-21T11:08:04.075Z,39.70
2022-09-21T11:09:20.199Z,39.80
2022-09-21T11:11:17.030Z,39.90
2022-09-21T11:12:33.269Z,39.80
2022-09-21T11:13:52.004Z,39.80
2022-09-21T11:15:00.600Z,39.70
2022-09-21T11:16:16.269Z,39.70
2022-09-21T11:17:43.516Z,39.70
2022-09-21T11:19:12.690Z,39.70
2022-09-21T11:20:29.695Z,40.20
2022-09-21T11:22:02.262Z,40.30
2022-09-21T11:23:32.447Z,39.60
2022-09-21T11:24:49.208Z,39.70
2022-09-21T11:26:30.509Z,39.70
2022-09-21T11:27:42.358Z,39.70
2022-09-21T11:29:03.427Z,39.70
2022-09-21T11:30:15.109Z,39.60
2022-09-21T11:31:26.520Z,39.60
2022-09-21T11:32:49.017Z,39.60
2022-09-21T11:34:16.478Z,39.60
2022-09-21T11:35:34.815Z,39.60
2022-09-21T11:36:56.086Z,39.60
2022-09-21T11:38:23.678Z,39.60
2022-09-21T11:40:07.823Z,39.60
2022-09-21T11:41:31.873Z,39.50
2022-09-21T11:42:35.396Z,39.60
2022-09-21T11:43:45.209Z,39.50
2022-09-21T11:44:57.114Z,39.50
2022-09-21T11:46:12.468Z,39.50
2022-09-21T11:47:30.394Z,39.40
2022-09-21T11:48:54.801Z,39.50
2022-09-21T11:50:31.628Z,39.50
2022-09-21T11:51:55.914Z,39.50
2022-09-21T11:53:19.890Z,39.50
2022-09-21T11:54:51.895Z,39.40
2022-09-21T11:56:12.501Z,39.30
2022-09-21T11:57:31.135Z,39.50
2022-09-21T11:58:43.353Z,39.40
2022-09-21T12:00:15.636Z,39.40
2022-09-21T12:01:43.925Z,39.40
2022-09-21T12:03:05.635Z,39.30
2022-09-21T12:04:27.690Z,39.40
2022-09-21T12:05:50.481Z,39.30
2022-09-21T12:07:37.443Z,39.40
2022-09-21T12:09:14.898Z,39.40
2022-09-21T12:10:37.695Z,39.30
2022-09-21T12:11:51.537Z,39.40
2022-09-21T12:13:05.385Z,39.40
2022-09-21T12:14:30.418Z,39.30
2022-09-21T12:16:19.457Z,39.20
2022-09-21T12:17:44.423Z,39.30
2022-09-21T12:19:11.497Z,39.30
2022-09-21T12:20:58.499Z,39.30
2022-09-21T12:22:12.947Z,39.20
2022-09-21T12:23:49.817Z,39.20
2022-09-21T12:25:23.570Z,39.20
2022-09-21T12:26:38.764Z,39.20
2022-09-21T12:27:54.664Z,39.20
2022-09-21T12:29:25.831Z,39.20
2022-09-21T12:30:29.884Z,39.20
2022-09-21T12:31:58.496Z,39.20
2022-09-21T12:33:20.539Z,39.10
2022-09-21T12:34:29.187Z,39.10
2022-09-21T12:35:50.169Z,39.10
2022-09-21T12:37:00.228Z,39.00
2022-09-21T12:38:23.520Z,39.00
2022-09-21T12:39:32.787Z,39.00
2022-09-21T12:40:51.347Z,39.10
2022-09-21T12:42:21.510Z,39.10
2022-09-21T12:43:36.489Z,39.00
2022-09-21T12:44:53.458Z,39.00
2022-09-21T12:46:10.785Z,39.00
2022-09-21T12:47:14.347Z,39.00
2022-09-21T12:48:45.877Z,38.90
2022-09-21T12:49:51.454Z,38.90
2022-09-21T12:51:06.315Z,39.00
2022-09-21T12:52:13.103Z,38.90
2022-09-21T12:53:28.411Z,38.90
2022-09-21T12:54:46.793Z,38.90
2022-09-21T12:56:09.589Z,38.90
2022-09-21T12:58:04.445Z,38.80
2022-09-21T12:59:09.522Z,38.60
2022-09-21T13:00:20.376Z,38.50
2022-09-21T13:01:42.294Z,38.60
2022-09-21T13:02:50.728Z,38.60
2022-09-21T13:04:10.494Z,38.30
2022-09-21T13:05:30.586Z,38.20
2022-09-21T13:06:44.920Z,38.30
2022-09-21T13:08:08.520Z,38.10
2022-09-21T13:09:12.501Z,38.30
2022-09-21T13:10:22.352Z,38.20
2022-09-21T13:11:25.242Z,38.20
2022-09-21T13:12:34.656Z,38.10
2022-09-21T13:13:38.934Z,38.10
2022-09-21T13:14:48.727Z,38.10
2022-09-21T13:15:52.174Z,38.10
2022-09-21T13:17:01.745Z,38.20
2022-09-21T13:18:24.007Z,38.20
2022-09-21T13:19:29.454Z,38.30
2022-09-21T13:20:38.243Z,38.30
2022-09-21T13:21:41.299Z,38.30
2022-09-21T13:22:44.646Z,38.30
2022-09-21T13:24:06.104Z,38.30
2022-09-21T13:25:17.535Z,38.40
2022-09-21T13:26:30.148Z,38.40
2022-09-21T13:28:02.203Z,38.40
2022-09-21T13:29:19.886Z,38.40
2022-09-21T13:30:37.482Z,38.50
2022-09-21T13:31:55.922Z,38.40
2022-09-21T13:32:58.988Z,38.40
2022-09-21T13:34:16.182Z,38.40
2022-09-21T13:35:56.165Z,38.40
2022-09-21T13:37:20.530Z,38.40
2022-09-21T13:38:29.273Z,38.40
2022-09-21T13:39:31.639Z,38.40
2022-09-21T13:40:35.311Z,38.30
2022-09-21T13:42:01.974Z,38.30
2022-09-21T13:43:17.008Z,38.30
2022-09-21T13:44:43.843Z,38.30
2022-09-21T13:45:53.958Z,38.30
2022-09-21T13:46:57.459Z,38.30
2022-09-21T13:48:18.169Z,38.30
2022-09-21T13:49:23.518Z,38.30
2022-09-21T13:50:45.489Z,38.20
2022-09-21T13:52:08.932Z,38.20
2022-09-21T13:53:25.478Z,38.20
2022-09-21T13:54:35.954Z,38.10
2022-09-21T13:55:42.138Z,38.10
2022-09-21T13:56:45.019Z,38.10
2022-09-21T13:57:52.028Z,38.10
2022-09-21T13:58:57.446Z,38.00
2022-09-21T14:00:28.515Z,38.00
2022-09-21T14:01:50.989Z,38.10
2022-09-21T14:02:56.508Z,38.00
2022-09-21T14:04:31.506Z,38.00
2022-09-21T14:05:41.744Z,38.00
2022-09-21T14:06:47.861Z,38.00
2022-09-21T14:08:00.842Z,37.90
2022-09-21T14:09:07.281Z,37.90
2022-09-21T14:10:10.391Z,37.90
2022-09-21T14:11:29.263Z,37.90
2022-09-21T14:12:47.527Z,37.90
2022-09-21T14:14:12.170Z,37.80
2022-09-21T14:15:18.521Z,37.80
2022-09-21T14:16:51.836Z,37.80
2022-09-21T14:18:18.386Z,37.80
2022-09-21T14:19:20.910Z,37.80
2022-09-21T14:20:37.103Z,37.70
2022-09-21T14:22:08.456Z,37.70
2022-09-21T14:23:23.136Z,37.80
2022-09-21T14:24:35.859Z,37.80
2022-09-21T14:25:48.961Z,37.70
2022-09-21T14:27:07.103Z,37.70
2022-09-21T14:28:13.195Z,37.70
2022-09-21T14:29:40.576Z,37.60
2022-09-21T14:30:55.503Z,37.60
2022-09-21T14:32:02.775Z,37.60
2022-09-21T14:33:29.112Z,37.60
2022-09-21T14:34:36.849Z,37.60
2022-09-21T14:35:45.659Z,37.60
2022-09-21T14:36:50.706Z,37.50
2022-09-21T14:38:00.105Z,37.50
2022-09-21T14:39:05.633Z,37.50
2022-09-21T14:40:24.577Z,37.50
2022-09-21T14:41:34.495Z,37.40
2022-09-21T14:42:39.936Z,37.50
2022-09-21T14:43:47.651Z,37.40
2022-09-21T14:44:51.705Z,37.40
2022-09-21T14:46:17.401Z,38.00
2022-09-21T14:47:33.934Z,37.40
2022-09-21T14:49:04.848Z,37.40
2022-09-21T14:50:27.708Z,37.40
2022-09-21T14:52:03.846Z,37.30
2022-09-21T14:53:39.061Z,37.30
2022-09-21T14:55:02.112Z,37.30
2022-09-21T14:56:22.429Z,37.30
2022-09-21T14:58:00.703Z,37.20
2022-09-21T14:59:15.731Z,37.20
2022-09-21T15:00:28.484Z,37.10
2022-09-21T15:01:37.339Z,37.10
2022-09-21T15:02:40.779Z,37.00
2022-09-21T15:04:09.077Z,37.00
2022-09-21T15:05:19.283Z,37.00
2022-09-21T15:06:43.702Z,37.00
2022-09-21T15:08:15.718Z,37.00
2022-09-21T15:10:00.006Z,37.00
2022-09-21T15:11:21.171Z,36.90
2022-09-21T15:12:38.816Z,36.90